createdAt,value
2023-02-09T00:03:37.325Z,15.45
2023-02-09T00:08:38.963Z,14.68
2023-02-09T00:13:40.621Z,14.30
2023-02-09T00:18:42.202Z,13.70
2023-02-09T00:23:43.849Z,13.05
2023-02-09T00:28:45.465Z,14.88
2023-02-09T00:33:47.390Z,13.98
2023-02-09T00:38:49.209Z,14.63
2023-02-09T00:43:50.844Z,15.27
2023-02-09T00:48:52.463Z,12.23
2023-02-09T00:53:54.096Z,14.65
2023-02-09T00:58:55.820Z,13.70
2023-02-09T01:03:57.537Z,16.70
2023-02-09T01:09:00.791Z,15.43
2023-02-09T01:14:04.414Z,15.55
2023-02-09T01:19:06.079Z,13.45
2023-02-09T01:24:11.854Z,14.40
2023-02-09T01:29:16.552Z,13.13
2023-02-09T01:34:18.974Z,13.63
2023-02-09T01:39:23.354Z,12.60
2023-02-09T01:44:24.953Z,14.45
2023-02-09T01:49:28.157Z,14.90
2023-02-09T01:54:46.250Z,14.73
2023-02-09T01:59:53.328Z,14.43
2023-02-09T02:04:55.337Z,15.48
2023-02-09T02:09:57.293Z,14.48
2023-02-09T02:14:58.953Z,14.52
2023-02-09T02:20:33.650Z,13.65
2023-02-09T02:25:41.265Z,13.73
2023-02-09T02:31:05.063Z,13.63
2023-02-09T02:36:31.505Z,13.95
2023-02-09T02:42:01.805Z,13.05
2023-02-09T02:47:07.144Z,12.65
2023-02-09T02:52:10.934Z,13.45
2023-02-09T02:57:17.097Z,15.98
2023-02-09T03:02:26.305Z,14.73
2023-02-09T03:07:27.984Z,13.93
2023-02-09T03:12:52.340Z,12.00
2023-02-09T03:18:20.524Z,15.68
2023-02-09T03:23:31.842Z,12.73
2023-02-09T03:28:35.890Z,15.82
2023-02-09T03:33:39.497Z,13.05
2023-02-09T03:38:41.182Z,14.35
2023-02-09T03:44:01.345Z,13.60
2023-02-09T03:49:02.921Z,13.60
2023-02-09T03:54:04.567Z,13.32
2023-02-09T03:59:06.515Z,11.57
2023-02-09T04:04:08.719Z,13.05
2023-02-09T04:09:11.388Z,13.43
2023-02-09T04:14:13.828Z,14.73
2023-02-09T04:19:15.814Z,14.68
2023-02-09T04:24:17.472Z,13.65
2023-02-09T04:29:19.112Z,13.48
2023-02-09T04:34:22.883Z,14.52
2023-02-09T04:39:24.481Z,14.05
2023-02-09T04:44:26.113Z,14.75
2023-02-09T04:49:27.710Z,14.65
2023-02-09T04:54:29.374Z,13.50
2023-02-09T04:59:39.095Z,14.73
2023-02-09T05:04:40.745Z,16.55
2023-02-09T05:09:42.437Z,12.88
2023-02-09T05:14:44.029Z,13.32
2023-02-09T05:19:45.624Z,14.25
2023-02-09T05:24:47.310Z,13.80
2023-02-09T05:29:48.966Z,15.13
2023-02-09T05:34:50.698Z,14.63
2023-02-09T05:39:52.906Z,15.43
2023-02-09T05:44:54.567Z,13.70
2023-02-09T05:49:56.287Z,14.50
2023-02-09T05:54:57.905Z,13.25
2023-02-09T05:59:59.518Z,16.10
2023-02-09T06:05:01.131Z,15.65
2023-02-09T06:10:02.716Z,15.05
2023-02-09T06:15:05.078Z,17.23
2023-02-09T06:20:07.109Z,15.77
2023-02-09T06:25:08.735Z,13.75
2023-02-09T06:30:11.198Z,14.73
2023-02-09T06:35:12.826Z,12.82
2023-02-09T06:40:14.490Z,13.85
2023-02-09T06:45:17.532Z,14.15
2023-02-09T06:50:19.479Z,13.50
2023-02-09T06:55:21.298Z,15.07
2023-02-09T07:00:23.137Z,14.45
2023-02-09T07:05:25.561Z,14.32
2023-02-09T07:10:27.216Z,14.10
2023-02-09T07:15:28.858Z,14.27
2023-02-09T07:20:30.429Z,15.27
2023-02-09T07:25:32.221Z,15.82
2023-02-09T07:30:33.989Z,14.35
2023-02-09T07:35:39.714Z,14.52
2023-02-09T07:40:46.452Z,13.90
2023-02-09T07:45:48.342Z,18.42
2023-02-09T07:50:51.113Z,16.73
2023-02-09T07:55:53.170Z,13.05
2023-02-09T08:00:54.785Z,12.68
2023-02-09T08:06:02.363Z,19.73
2023-02-09T08:11:05.490Z,26.05
2023-02-09T08:16:15.023Z,27.77
2023-02-09T08:21:18.350Z,20.37
2023-02-09T08:26:20.221Z,15.00
2023-02-09T08:31:22.568Z,20.73
2023-02-09T08:36:24.248Z,14.68
2023-02-09T08:41:25.840Z,15.30
2023-02-09T08:46:27.749Z,15.23
2023-02-09T08:51:29.470Z,13.65
2023-02-09T08:56:31.085Z,17.38
2023-02-09T09:01:32.786Z,14.13
2023-02-09T09:06:34.493Z,18.08
2023-02-09T09:11:36.792Z,17.48
2023-02-09T09:16:38.590Z,23.55
2023-02-09T09:21:40.265Z,21.77
2023-02-09T09:26:42.001Z,20.15
2023-02-09T09:31:43.900Z,21.50
2023-02-09T09:36:45.603Z,17.90
2023-02-09T09:41:49.322Z,15.18
2023-02-09T09:46:53.322Z,18.77
2023-02-09T09:52:11.482Z,26.45
2023-02-09T09:57:27.409Z,30.30
2023-02-09T10:02:32.296Z,17.85
2023-02-09T10:07:34.624Z,15.13
2023-02-09T10:12:39.507Z,21.13
2023-02-09T10:17:41.106Z,20.88
2023-02-09T10:22:45.870Z,21.67
2023-02-09T10:27:47.516Z,18.77
2023-02-09T10:32:49.213Z,34.28
2023-02-09T10:37:59.081Z,24.75
2023-02-09T10:43:04.145Z,17.70
2023-02-09T10:48:11.972Z,22.98
2023-02-09T10:53:26.793Z,26.08
2023-02-09T10:58:32.740Z,21.38
2023-02-09T11:03:35.408Z,33.67
2023-02-09T11:08:52.294Z,27.10
2023-02-09T11:13:54.369Z,24.33
2023-02-09T11:19:06.460Z,29.25
2023-02-09T11:24:35.620Z,24.55
2023-02-09T11:29:43.469Z,24.52
2023-02-09T11:35:00.697Z,25.15
2023-02-09T11:40:39.843Z,28.33
2023-02-09T11:45:50.342Z,21.60
2023-02-09T11:51:00.910Z,20.88
2023-02-09T11:56:07.968Z,22.20
2023-02-09T12:01:20.610Z,22.88
2023-02-09T12:06:24.587Z,21.58
2023-02-09T12:11:41.987Z,29.15
2023-02-09T12:16:50.388Z,29.65
2023-02-09T12:21:52.098Z,22.15
2023-02-09T12:26:57.535Z,31.13
2023-02-09T12:32:06.214Z,24.08
2023-02-09T12:37:14.473Z,33.78
2023-02-09T12:42:16.066Z,26.52
2023-02-09T12:47:41.383Z,22.45
2023-02-09T12:53:21.547Z,22.77
2023-02-09T12:58:44.988Z,26.50
2023-02-09T13:04:05.249Z,25.10
2023-02-09T13:09:13.523Z,31.27
2023-02-09T13:14:16.640Z,24.63
2023-02-09T13:20:02.331Z,28.50
2023-02-09T13:25:32.345Z,28.05
2023-02-09T13:30:34.117Z,25.87
2023-02-09T13:35:46.705Z,26.08
2023-02-09T13:40:50.405Z,29.58
2023-02-09T13:45:54.667Z,40.88
2023-02-09T13:50:59.271Z,37.17
2023-02-09T14:02:39.003Z,34.85
2023-02-09T14:07:40.714Z,34.30
2023-02-09T14:12:51.235Z,37.83
2023-02-09T14:17:55.294Z,32.72
2023-02-09T14:23:00.602Z,34.80
2023-02-09T14:28:02.453Z,29.13
2023-02-09T14:33:04.298Z,22.85
2023-02-09T14:38:06.058Z,24.55
2023-02-09T14:43:10.624Z,27.13
2023-02-09T14:48:23.503Z,29.80
2023-02-09T14:53:29.707Z,27.08
2023-02-09T14:58:33.745Z,30.02
2023-02-09T15:03:35.398Z,26.80
2023-02-09T15:08:38.941Z,26.83
2023-02-09T15:13:40.795Z,26.65
2023-02-09T15:18:42.591Z,30.08
2023-02-09T15:23:44.213Z,33.10
2023-02-09T15:28:46.072Z,29.90
2023-02-09T15:33:47.832Z,34.22
2023-02-09T15:38:49.543Z,28.20
2023-02-09T15:44:09.620Z,27.80
2023-02-09T15:49:11.241Z,29.85
2023-02-09T15:54:18.761Z,29.65
2023-02-09T15:59:24.545Z,30.17
2023-02-09T16:04:26.300Z,30.40
2023-02-09T16:09:29.017Z,26.75
2023-02-09T16:14:31.661Z,31.63
2023-02-09T16:19:33.671Z,24.27
2023-02-09T16:24:46.514Z,18.13
2023-02-09T16:29:48.221Z,16.95
2023-02-09T16:34:50.502Z,21.65
2023-02-09T16:39:52.865Z,23.10
2023-02-09T16:44:54.516Z,16.90
2023-02-09T16:50:02.842Z,19.65
2023-02-09T16:55:07.028Z,15.82
2023-02-09T17:00:09.455Z,17.50
2023-02-09T17:05:29.346Z,20.52
2023-02-09T17:10:34.143Z,11.90
2023-02-09T17:15:47.231Z,16.70
2023-02-09T17:20:55.964Z,18.50
2023-02-09T17:25:58.301Z,13.77
2023-02-09T17:31:02.175Z,10.80
2023-02-09T17:36:25.227Z,15.90
2023-02-09T17:41:33.994Z,20.30
2023-02-09T17:46:35.740Z,25.13
2023-02-09T17:51:40.459Z,24.92
2023-02-09T17:56:43.424Z,25.40
2023-02-09T18:01:49.587Z,19.70
2023-02-09T18:06:51.318Z,18.75
2023-02-09T18:12:03.999Z,19.00
2023-02-09T18:17:05.739Z,22.58
2023-02-09T18:22:07.441Z,39.90
2023-02-09T18:27:14.790Z,37.85
2023-02-09T18:32:17.119Z,31.67
2023-02-09T18:37:18.817Z,35.15
2023-02-09T18:42:20.441Z,33.72
2023-02-09T18:47:22.200Z,29.30
2023-02-09T18:52:25.320Z,27.33
2023-02-09T18:57:27.093Z,27.73
2023-02-09T19:02:28.791Z,24.83
2023-02-09T19:07:32.458Z,19.80
2023-02-09T19:12:34.206Z,23.30
2023-02-09T19:17:35.979Z,24.13
2023-02-09T19:22:38.366Z,24.02
2023-02-09T19:27:40.321Z,31.35
2023-02-09T19:32:42.073Z,29.08
2023-02-09T19:37:43.923Z,37.03
2023-02-09T19:42:45.566Z,44.47
2023-02-09T19:47:47.202Z,37.03
2023-02-09T19:52:50.336Z,38.97
2023-02-09T19:57:52.088Z,27.73
2023-02-09T20:02:53.856Z,23.90
2023-02-09T20:07:55.761Z,27.42
2023-02-09T20:12:57.487Z,21.70
2023-02-09T20:17:59.205Z,17.95
2023-02-09T20:23:00.915Z,20.98
2023-02-09T20:28:02.956Z,20.88
2023-02-09T20:33:04.618Z,18.45
2023-02-09T20:38:06.427Z,20.88
2023-02-09T20:43:27.836Z,17.40
2023-02-09T20:48:29.487Z,16.98
2023-02-09T20:53:43.877Z,20.25
2023-02-09T20:58:45.899Z,18.48
2023-02-09T21:03:54.475Z,20.92
2023-02-09T21:09:06.237Z,20.33
2023-02-09T21:14:13.479Z,19.88
2023-02-09T21:19:24.511Z,23.23
2023-02-09T21:24:26.420Z,23.35
2023-02-09T21:29:29.302Z,18.38
2023-02-09T21:34:31.039Z,17.42
2023-02-09T21:39:32.704Z,15.57
2023-02-09T21:44:37.807Z,19.05
2023-02-09T21:49:39.431Z,15.93
2023-02-09T21:54:41.086Z,14.65
2023-02-09T21:59:42.961Z,10.95
2023-02-09T22:04:46.594Z,12.52
2023-02-09T22:09:48.243Z,13.48
2023-02-09T22:14:49.833Z,11.98
2023-02-09T22:19:51.466Z,12.40
2023-02-09T22:24:53.123Z,9.45
2023-02-09T22:29:54.688Z,11.23
2023-02-09T22:34:56.272Z,11.30
2023-02-09T22:39:57.979Z,11.48
2023-02-09T22:44:59.630Z,14.60
2023-02-09T22:50:01.490Z,21.45
2023-02-09T22:55:03.187Z,12.18
2023-02-09T23:00:07.668Z,12.07
2023-02-09T23:05:28.060Z,9.23
2023-02-09T23:10:30.721Z,9.88
2023-02-09T23:15:32.354Z,9.57
2023-02-09T23:20:33.983Z,11.43
2023-02-09T23:25:35.611Z,13.68
2023-02-09T23:30:37.690Z,9.57
2023-02-09T23:35:39.969Z,8.70
2023-02-09T23:40:41.642Z,11.45
2023-02-09T23:45:43.245Z,8.18
2023-02-09T23:50:44.948Z,12.02
2023-02-09T23:55:51.501Z,7.47
